createdAt,value
2018-08-20T00:00:42.894Z,21.20
2018-08-20T00:03:11.298Z,21.16
2018-08-20T00:05:42.454Z,21.13
2018-08-20T00:08:10.850Z,21.11
2018-08-20T00:10:39.218Z,21.08
2018-08-20T00:13:07.620Z,21.06
2018-08-20T00:15:35.998Z,21.02
2018-08-20T00:18:04.438Z,21.00
2018-08-20T00:20:32.889Z,21.00
2018-08-20T00:23:01.278Z,20.97
2018-08-20T00:25:29.655Z,20.94
2018-08-20T00:27:58.062Z,20.91
2018-08-20T00:30:26.425Z,20.89
2018-08-20T00:32:55.114Z,20.88
2018-08-20T00:35:23.481Z,20.85
2018-08-20T00:37:52.838Z,20.83
2018-08-20T00:40:22.010Z,20.81
2018-08-20T00:42:50.414Z,20.76
2018-08-20T00:45:18.791Z,20.74
2018-08-20T00:47:47.183Z,20.68
2018-08-20T00:50:15.567Z,20.65
2018-08-20T00:52:43.970Z,20.62
2018-08-20T00:55:13.002Z,20.59
2018-08-20T00:57:41.923Z,20.56
2018-08-20T01:00:11.505Z,20.55
2018-08-20T01:02:39.911Z,20.52
2018-08-20T01:05:08.467Z,20.48
2018-08-20T01:07:36.870Z,20.46
2018-08-20T01:10:07.211Z,20.44
2018-08-20T01:12:35.639Z,20.42
2018-08-20T01:15:04.175Z,20.40
2018-08-20T01:17:32.602Z,20.38
2018-08-20T01:20:00.982Z,20.36
2018-08-20T01:22:29.374Z,20.32
2018-08-20T01:24:57.792Z,20.29
2018-08-20T01:27:27.204Z,20.26
2018-08-20T01:29:55.626Z,20.23
2018-08-20T01:32:24.032Z,20.20
2018-08-20T01:34:52.438Z,20.19
2018-08-20T01:37:21.596Z,20.17
2018-08-20T01:39:50.608Z,20.15
2018-08-20T01:42:19.272Z,20.14
2018-08-20T01:44:48.395Z,20.13
2018-08-20T01:47:16.774Z,20.10
2018-08-20T01:49:45.170Z,20.09
2018-08-20T01:52:13.542Z,20.06
2018-08-20T01:54:41.950Z,20.05
2018-08-20T01:57:10.333Z,20.04
2018-08-20T01:59:39.074Z,20.02
2018-08-20T02:02:07.450Z,19.99
2018-08-20T02:04:35.855Z,19.97
2018-08-20T02:07:04.237Z,19.95
2018-08-20T02:09:32.633Z,19.93
2018-08-20T02:12:01.018Z,19.92
2018-08-20T02:14:29.421Z,19.90
2018-08-20T02:16:57.829Z,19.89
2018-08-20T02:19:26.226Z,19.87
2018-08-20T02:21:54.598Z,19.86
2018-08-20T02:24:22.997Z,19.84
2018-08-20T02:26:51.365Z,19.82
2018-08-20T02:29:19.810Z,19.81
2018-08-20T02:31:48.170Z,19.79
2018-08-20T02:34:16.565Z,19.79
2018-08-20T02:36:44.939Z,19.78
2018-08-20T02:39:14.678Z,19.76
2018-08-20T02:41:43.565Z,19.75
2018-08-20T02:44:13.074Z,19.75
2018-08-20T02:46:45.696Z,19.75
2018-08-20T02:49:14.741Z,19.76
2018-08-20T02:51:43.102Z,19.77
2018-08-20T02:54:12.226Z,19.76
2018-08-20T02:56:41.086Z,19.76
2018-08-20T02:59:09.490Z,19.75
2018-08-20T03:01:38.050Z,19.75
2018-08-20T03:04:07.002Z,19.75
2018-08-20T03:06:35.834Z,19.76
2018-08-20T03:09:06.110Z,19.76
2018-08-20T03:11:34.481Z,19.77
2018-08-20T03:14:03.073Z,19.78
2018-08-20T03:16:31.477Z,19.80
2018-08-20T03:18:59.895Z,19.82
2018-08-20T03:21:28.362Z,19.85
2018-08-20T03:23:56.761Z,19.87
2018-08-20T03:26:25.158Z,19.87
2018-08-20T03:28:53.538Z,19.88
2018-08-20T03:31:21.940Z,19.87
2018-08-20T03:33:50.319Z,19.85
2018-08-20T03:36:18.711Z,19.85
2018-08-20T03:38:47.086Z,19.85
2018-08-20T03:41:15.495Z,19.85
2018-08-20T03:43:43.866Z,19.85
2018-08-20T03:46:12.262Z,19.87
2018-08-20T03:48:40.645Z,19.88
2018-08-20T03:51:09.046Z,19.91
2018-08-20T03:53:37.422Z,19.93
2018-08-20T03:56:05.930Z,19.97
2018-08-20T03:58:34.322Z,20.01
2018-08-20T04:01:02.801Z,20.04
2018-08-20T04:03:31.197Z,20.07
2018-08-20T04:05:59.595Z,20.11
2018-08-20T04:08:27.966Z,20.15
2018-08-20T04:10:56.366Z,20.18
2018-08-20T04:13:24.751Z,20.22
2018-08-20T04:15:53.442Z,20.27
2018-08-20T04:18:21.837Z,20.30
2018-08-20T04:20:50.238Z,20.32
2018-08-20T04:23:18.621Z,20.36
2018-08-20T04:25:47.019Z,20.39
2018-08-20T04:28:15.399Z,20.39
2018-08-20T04:30:43.931Z,20.40
2018-08-20T04:33:12.250Z,20.40
2018-08-20T04:35:40.654Z,20.41
2018-08-20T04:38:09.070Z,20.43
2018-08-20T04:40:37.462Z,20.44
2018-08-20T04:43:05.874Z,20.46
2018-08-20T04:45:34.270Z,20.47
2018-08-20T04:48:02.648Z,20.48
2018-08-20T04:50:31.280Z,20.49
2018-08-20T04:52:59.456Z,20.48
2018-08-20T04:55:27.969Z,20.48
2018-08-20T04:57:56.347Z,20.49
2018-08-20T05:00:24.754Z,20.52
2018-08-20T05:02:53.130Z,20.54
2018-08-20T05:05:21.535Z,20.55
2018-08-20T05:07:49.910Z,20.59
2018-08-20T05:10:18.322Z,20.62
2018-08-20T05:12:46.707Z,20.66
2018-08-20T05:15:15.086Z,20.71
2018-08-20T05:17:43.602Z,20.76
2018-08-20T05:20:11.986Z,20.80
2018-08-20T05:22:40.506Z,20.85
2018-08-20T05:25:08.890Z,20.90
2018-08-20T05:27:37.285Z,20.95
2018-08-20T05:30:06.986Z,21.01
2018-08-20T05:32:35.382Z,21.05
2018-08-20T05:35:03.782Z,21.10
2018-08-20T05:37:32.172Z,21.15
2018-08-20T05:40:00.549Z,21.22
2018-08-20T05:42:28.943Z,21.29
2018-08-20T05:44:57.371Z,21.34
2018-08-20T05:47:25.744Z,21.43
2018-08-20T05:49:54.171Z,21.51
2018-08-20T05:52:22.641Z,21.60
2018-08-20T05:54:50.981Z,21.68
2018-08-20T05:57:19.382Z,21.76
2018-08-20T05:59:47.762Z,21.84
2018-08-20T06:02:16.170Z,21.91
2018-08-20T06:04:44.533Z,22.01
2018-08-20T06:07:12.938Z,22.09
2018-08-20T06:09:41.314Z,22.15
2018-08-20T06:12:09.711Z,22.21
2018-08-20T06:14:38.202Z,22.28
2018-08-20T06:17:06.630Z,22.32
2018-08-20T06:19:35.014Z,22.40
2018-08-20T06:22:03.422Z,22.46
2018-08-20T06:24:31.806Z,22.53
2018-08-20T06:27:00.207Z,22.58
2018-08-20T06:29:28.618Z,22.64
2018-08-20T06:31:57.171Z,22.71
2018-08-20T06:34:25.546Z,22.76
2018-08-20T06:36:53.990Z,22.83
2018-08-20T06:39:22.375Z,22.87
2018-08-20T06:41:50.785Z,22.89
2018-08-20T06:44:19.174Z,22.90
2018-08-20T06:46:47.570Z,22.93
2018-08-20T06:49:15.965Z,22.95
2018-08-20T06:51:44.374Z,22.95
2018-08-20T06:54:12.758Z,22.95
2018-08-20T06:56:41.174Z,22.96
2018-08-20T06:59:09.553Z,22.98
2018-08-20T07:01:37.954Z,23.03
2018-08-20T07:04:06.334Z,23.08
2018-08-20T07:06:34.748Z,23.12
2018-08-20T07:09:03.583Z,23.20
2018-08-20T07:11:31.982Z,23.25
2018-08-20T07:14:00.393Z,23.31
2018-08-20T07:16:28.762Z,23.33
2018-08-20T07:18:57.173Z,23.35
2018-08-20T07:21:25.546Z,23.34
2018-08-20T07:23:54.024Z,23.35
2018-08-20T07:26:22.358Z,23.34
2018-08-20T07:28:50.779Z,23.36
2018-08-20T07:31:19.253Z,23.36
2018-08-20T07:33:47.642Z,23.37
2018-08-20T07:36:16.039Z,23.38
2018-08-20T07:38:44.430Z,23.41
2018-08-20T07:41:12.797Z,23.46
2018-08-20T07:43:41.182Z,23.53
2018-08-20T07:46:09.554Z,23.61
2018-08-20T07:48:37.942Z,23.72
2018-08-20T07:51:06.583Z,23.81
2018-08-20T07:53:34.986Z,23.87
2018-08-20T07:56:03.390Z,23.93
2018-08-20T07:58:31.794Z,23.96
2018-08-20T08:01:00.167Z,23.94
2018-08-20T08:03:31.415Z,23.99
2018-08-20T08:06:01.895Z,24.02
2018-08-20T08:08:30.368Z,24.00
2018-08-20T08:10:58.746Z,23.96
2018-08-20T08:13:27.178Z,23.94
2018-08-20T08:15:55.606Z,23.93
2018-08-20T08:18:24.038Z,23.88
2018-08-20T08:20:52.426Z,23.83
2018-08-20T08:23:20.847Z,23.79
2018-08-20T08:25:49.226Z,23.84
2018-08-20T08:28:17.662Z,23.86
2018-08-20T08:30:46.088Z,23.87
2018-08-20T08:33:14.489Z,23.88
2018-08-20T08:35:42.866Z,23.91
2018-08-20T08:38:11.429Z,24.00
2018-08-20T08:40:39.718Z,24.10
2018-08-20T08:43:08.118Z,24.21
2018-08-20T08:45:36.486Z,24.27
2018-08-20T08:48:04.940Z,24.29
2018-08-20T08:50:33.325Z,24.33
2018-08-20T08:53:01.705Z,24.33
2018-08-20T08:55:30.074Z,24.28
2018-08-20T08:57:58.466Z,24.21
2018-08-20T09:00:26.851Z,24.14
2018-08-20T09:02:55.243Z,24.08
2018-08-20T09:05:23.619Z,24.05
2018-08-20T09:07:52.083Z,24.01
2018-08-20T09:10:20.446Z,23.97
2018-08-20T09:12:48.849Z,23.93
2018-08-20T09:15:17.954Z,23.93
2018-08-20T09:17:46.578Z,23.91
2018-08-20T09:20:16.242Z,23.89
2018-08-20T09:22:44.824Z,23.88
2018-08-20T09:25:14.056Z,23.88
2018-08-20T09:27:43.431Z,23.93
2018-08-20T09:30:18.799Z,23.94
2018-08-20T09:32:47.658Z,23.99
2018-08-20T09:35:16.167Z,24.07
2018-08-20T09:37:44.539Z,24.15
2018-08-20T09:40:13.418Z,24.20
2018-08-20T09:42:42.309Z,24.15
2018-08-20T09:45:10.982Z,24.13
2018-08-20T09:47:40.388Z,24.13
2018-08-20T09:50:14.838Z,24.10
2018-08-20T09:52:43.406Z,23.99
2018-08-20T09:55:11.794Z,23.87
2018-08-20T09:57:40.576Z,23.74
2018-08-20T10:00:18.202Z,23.58
2018-08-20T10:02:46.632Z,23.45
2018-08-20T10:05:15.034Z,23.41
2018-08-20T10:07:43.538Z,23.39
2018-08-20T10:10:12.080Z,23.40
2018-08-20T10:12:40.467Z,23.44
2018-08-20T10:15:09.233Z,23.43
2018-08-20T10:17:37.633Z,23.44
2018-08-20T10:20:08.258Z,23.46
2018-08-20T10:22:36.632Z,23.52
2018-08-20T10:25:05.195Z,23.60
2018-08-20T10:27:33.574Z,23.67
2018-08-20T10:30:02.287Z,23.74
2018-08-20T10:32:31.290Z,23.83
2018-08-20T10:34:59.898Z,23.88
2018-08-20T10:37:28.278Z,23.96
2018-08-20T10:39:56.696Z,24.08
2018-08-20T10:42:25.103Z,24.15
2018-08-20T10:44:58.543Z,24.17
2018-08-20T10:47:26.982Z,24.18
2018-08-20T10:49:55.392Z,24.18
2018-08-20T10:52:23.766Z,24.17
2018-08-20T10:54:52.162Z,24.18
2018-08-20T10:57:20.539Z,24.23
2018-08-20T10:59:48.922Z,24.32
2018-08-20T11:02:17.295Z,24.43
2018-08-20T11:04:45.681Z,24.57
2018-08-20T11:07:14.054Z,24.73
2018-08-20T11:09:42.450Z,24.85
2018-08-20T11:12:10.821Z,24.95
2018-08-20T11:14:39.214Z,25.07
2018-08-20T11:17:07.605Z,25.18
2018-08-20T11:19:36.001Z,25.28
2018-08-20T11:22:04.386Z,25.34
2018-08-20T11:24:32.773Z,25.27
2018-08-20T11:27:01.219Z,25.18
2018-08-20T11:29:29.555Z,25.04
2018-08-20T11:31:57.930Z,24.88
2018-08-20T11:34:26.333Z,24.72
2018-08-20T11:36:54.706Z,24.56
2018-08-20T11:39:23.094Z,24.40
2018-08-20T11:41:51.466Z,24.20
2018-08-20T11:44:19.873Z,24.01
2018-08-20T11:46:48.250Z,23.84
2018-08-20T11:49:16.689Z,23.69
2018-08-20T11:51:45.050Z,23.57
2018-08-20T11:54:13.419Z,23.49
2018-08-20T11:56:41.809Z,23.46
2018-08-20T11:59:10.259Z,23.47
2018-08-20T12:01:38.609Z,23.51
2018-08-20T12:04:07.030Z,23.56
2018-08-20T12:06:35.450Z,23.63
2018-08-20T12:09:05.382Z,23.76
2018-08-20T12:11:33.778Z,23.90
2018-08-20T12:14:02.155Z,24.07
2018-08-20T12:16:30.551Z,24.25
2018-08-20T12:18:58.956Z,24.45
2018-08-20T12:21:27.388Z,24.61
2018-08-20T12:23:55.764Z,24.74
2018-08-20T12:26:24.149Z,24.87
2018-08-20T12:28:52.518Z,25.02
2018-08-20T12:31:20.909Z,25.17
2018-08-20T12:33:49.334Z,25.34
2018-08-20T12:36:17.718Z,25.55
2018-08-20T12:38:46.092Z,25.64
2018-08-20T12:41:14.483Z,25.64
2018-08-20T12:43:42.857Z,25.70
2018-08-20T12:46:11.250Z,25.74
2018-08-20T12:48:39.610Z,25.78
2018-08-20T12:51:08.030Z,25.81
2018-08-20T12:53:36.398Z,25.86
2018-08-20T12:56:04.790Z,25.91
2018-08-20T12:58:33.155Z,25.96
2018-08-20T13:01:01.653Z,25.99
2018-08-20T13:03:29.951Z,26.03
2018-08-20T13:05:58.387Z,26.02
2018-08-20T13:08:26.799Z,26.06
2018-08-20T13:10:55.220Z,26.12
2018-08-20T13:13:23.590Z,26.19
2018-08-20T13:15:52.019Z,26.26
2018-08-20T13:18:20.414Z,26.34
2018-08-20T13:20:48.817Z,26.39
2018-08-20T13:23:17.191Z,26.40
2018-08-20T13:25:45.727Z,26.37
2018-08-20T13:28:14.098Z,26.41
2018-08-20T13:30:42.647Z,26.48
2018-08-20T13:33:10.966Z,26.54
2018-08-20T13:35:39.360Z,26.60
2018-08-20T13:38:07.734Z,26.69
2018-08-20T13:40:36.134Z,26.79
2018-08-20T13:43:04.535Z,26.90
2018-08-20T13:45:32.930Z,26.99
2018-08-20T13:48:01.362Z,27.07
2018-08-20T13:50:29.790Z,27.16
2018-08-20T13:52:58.186Z,27.27
2018-08-20T13:55:26.559Z,27.32
2018-08-20T13:57:54.958Z,27.36
2018-08-20T14:00:23.343Z,27.38
2018-08-20T14:02:51.733Z,27.37
2018-08-20T14:05:20.114Z,27.33
2018-08-20T14:07:48.605Z,27.27
2018-08-20T14:10:16.977Z,27.22
2018-08-20T14:12:45.376Z,27.20
2018-08-20T14:15:14.426Z,27.21
2018-08-20T14:17:43.550Z,27.21
2018-08-20T14:20:13.954Z,27.21
2018-08-20T14:22:43.281Z,27.23
2018-08-20T14:25:11.816Z,27.25
2018-08-20T14:27:40.211Z,27.33
2018-08-20T14:30:13.254Z,27.31
2018-08-20T14:32:42.022Z,27.29
2018-08-20T14:35:10.994Z,27.24
2018-08-20T14:37:39.797Z,27.16
2018-08-20T14:40:12.607Z,27.11
2018-08-20T14:42:41.261Z,27.06
2018-08-20T14:45:11.162Z,26.97
2018-08-20T14:47:40.403Z,26.81
2018-08-20T14:50:10.990Z,26.68
2018-08-20T14:52:39.870Z,26.53
2018-08-20T14:55:08.773Z,26.39
2018-08-20T14:57:37.383Z,26.30
2018-08-20T15:00:06.919Z,26.24
2018-08-20T15:02:35.338Z,26.26
2018-08-20T15:05:03.821Z,26.28
2018-08-20T15:07:32.297Z,26.29
2018-08-20T15:10:00.686Z,26.23
2018-08-20T15:12:29.079Z,26.20
2018-08-20T15:14:57.560Z,26.17
2018-08-20T15:17:25.986Z,26.19
2018-08-20T15:19:54.358Z,26.18
2018-08-20T15:22:22.759Z,26.17
2018-08-20T15:24:51.143Z,26.15
2018-08-20T15:27:19.547Z,26.06
2018-08-20T15:29:47.930Z,26.01
2018-08-20T15:32:16.376Z,25.96
2018-08-20T15:34:44.738Z,25.92
2018-08-20T15:37:13.149Z,25.87
2018-08-20T15:39:41.619Z,25.81
2018-08-20T15:42:09.946Z,25.75
2018-08-20T15:44:38.313Z,25.68
2018-08-20T15:47:06.702Z,25.65
2018-08-20T15:49:35.076Z,25.61
2018-08-20T15:52:03.450Z,25.56
2018-08-20T15:54:31.842Z,25.53
2018-08-20T15:57:00.366Z,25.53
2018-08-20T15:59:28.770Z,25.52
2018-08-20T16:01:57.145Z,25.50
2018-08-20T16:04:25.535Z,25.47
2018-08-20T16:06:53.926Z,25.47
2018-08-20T16:09:22.331Z,25.47
2018-08-20T16:11:50.722Z,25.39
2018-08-20T16:14:19.113Z,25.32
2018-08-20T16:16:47.483Z,25.23
2018-08-20T16:19:15.905Z,25.17
2018-08-20T16:21:44.273Z,25.12
2018-08-20T16:24:12.667Z,25.07
2018-08-20T16:26:41.096Z,25.08
2018-08-20T16:29:09.499Z,25.09
2018-08-20T16:31:37.926Z,25.10
2018-08-20T16:34:06.354Z,25.12
2018-08-20T16:36:34.878Z,25.12
2018-08-20T16:39:04.814Z,25.08
2018-08-20T16:41:33.286Z,24.98
2018-08-20T16:44:01.682Z,24.95
2018-08-20T16:46:30.054Z,24.95
2018-08-20T16:48:58.487Z,24.92
2018-08-20T16:51:26.882Z,24.98
2018-08-20T16:53:55.290Z,25.07
2018-08-20T16:56:23.658Z,25.15
2018-08-20T16:58:52.154Z,25.22
2018-08-20T17:01:20.550Z,25.28
2018-08-20T17:03:48.982Z,25.27
2018-08-20T17:06:17.357Z,25.23
2018-08-20T17:08:45.978Z,25.11
2018-08-20T17:11:14.873Z,24.96
2018-08-20T17:13:43.453Z,24.83
2018-08-20T17:16:14.990Z,24.73
2018-08-20T17:18:43.415Z,24.58
2018-08-20T17:21:11.791Z,24.49
2018-08-20T17:23:40.177Z,24.39
2018-08-20T17:26:08.759Z,24.30
2018-08-20T17:28:37.275Z,24.20
2018-08-20T17:31:09.913Z,24.09
2018-08-20T17:33:38.302Z,23.98
2018-08-20T17:36:08.232Z,23.89
2018-08-20T17:38:36.651Z,23.81
2018-08-20T17:41:05.875Z,23.73
2018-08-20T17:43:34.266Z,23.67
2018-08-20T17:46:02.658Z,23.56
2018-08-20T17:48:32.446Z,23.48
2018-08-20T17:51:01.002Z,23.40
2018-08-20T17:53:42.834Z,23.33
2018-08-20T17:56:11.218Z,23.22
2018-08-20T17:58:39.585Z,23.13
2018-08-20T18:01:08.003Z,23.04
2018-08-20T18:03:37.232Z,22.99
2018-08-20T18:06:07.778Z,22.91
2018-08-20T18:08:36.439Z,22.83
2018-08-20T18:11:05.795Z,22.62
2018-08-20T18:13:44.469Z,22.60
2018-08-20T18:16:14.006Z,22.50
2018-08-20T18:18:45.220Z,22.41
2018-08-20T18:21:13.610Z,22.33
2018-08-20T18:23:41.998Z,22.23
2018-08-20T18:26:10.413Z,22.16
2018-08-20T18:28:45.753Z,22.09
2018-08-20T18:31:15.738Z,22.05
2018-08-20T18:33:44.606Z,21.97
2018-08-20T18:36:15.198Z,21.90
2018-08-20T18:39:04.961Z,21.83
2018-08-20T18:41:55.483Z,21.77
2018-08-20T18:44:24.102Z,21.72
2018-08-20T18:46:52.921Z,21.68
2018-08-20T18:49:22.081Z,21.67
2018-08-20T18:52:03.803Z,21.65
2018-08-20T18:54:36.084Z,21.64
2018-08-20T18:57:05.470Z,21.63
2018-08-20T18:59:35.363Z,21.61
2018-08-20T19:02:03.810Z,21.58
2018-08-20T19:04:38.650Z,21.54
2018-08-20T19:07:10.049Z,21.48
2018-08-20T19:09:39.231Z,21.40
2018-08-20T19:12:08.033Z,21.33
2018-08-20T19:14:36.407Z,21.29
2018-08-20T19:17:13.185Z,21.22
2018-08-20T19:19:45.720Z,21.16
2018-08-20T19:22:19.427Z,21.12
2018-08-20T19:24:47.794Z,21.09
2018-08-20T19:27:16.267Z,21.05
2018-08-20T19:29:44.671Z,20.98
2018-08-20T19:32:13.074Z,20.95
2018-08-20T19:34:41.446Z,20.89
2018-08-20T19:37:09.863Z,20.82
2018-08-20T19:39:38.238Z,20.76
2018-08-20T19:42:07.330Z,20.70
2018-08-20T19:44:35.702Z,20.65
2018-08-20T19:47:04.093Z,20.61
2018-08-20T19:49:32.472Z,20.57
2018-08-20T19:52:01.022Z,20.55
2018-08-20T19:54:29.393Z,20.50
2018-08-20T19:56:57.777Z,20.47
2018-08-20T19:59:31.442Z,20.44
2018-08-20T20:01:59.899Z,20.40
2018-08-20T20:04:28.269Z,20.36
2018-08-20T20:06:56.674Z,20.33
2018-08-20T20:09:25.042Z,20.28
2018-08-20T20:11:53.432Z,20.23
2018-08-20T20:14:21.808Z,20.17
2018-08-20T20:16:54.471Z,20.08
2018-08-20T20:19:23.026Z,20.01
2018-08-20T20:21:51.431Z,19.95
2018-08-20T20:24:19.817Z,19.88
2018-08-20T20:26:48.213Z,19.81
2018-08-20T20:29:16.640Z,19.77
2018-08-20T20:31:45.017Z,19.71
2018-08-20T20:34:13.389Z,19.65
2018-08-20T20:36:41.777Z,19.59
2018-08-20T20:39:11.586Z,19.55
2018-08-20T20:41:40.078Z,19.49
2018-08-20T20:44:09.310Z,19.43
2018-08-20T20:46:37.705Z,19.36
2018-08-20T20:49:06.083Z,19.33
2018-08-20T20:51:34.506Z,19.28
2018-08-20T20:54:02.872Z,19.24
2018-08-20T20:56:31.239Z,19.18
2018-08-20T20:58:59.642Z,19.14
2018-08-20T21:01:28.011Z,19.10
2018-08-20T21:03:56.498Z,19.07
2018-08-20T21:06:24.866Z,19.03
2018-08-20T21:08:53.293Z,18.97
2018-08-20T21:11:22.977Z,18.92
2018-08-20T21:13:51.361Z,18.89
2018-08-20T21:16:23.658Z,18.85
2018-08-20T21:18:53.375Z,18.80
2018-08-20T21:21:22.390Z,18.77
2018-08-20T21:23:50.941Z,18.74
2018-08-20T21:26:19.342Z,18.70
2018-08-20T21:28:49.847Z,18.66
2018-08-20T21:31:19.335Z,18.62
2018-08-20T21:33:48.039Z,18.58
2018-08-20T21:36:16.896Z,18.53
2018-08-20T21:38:45.418Z,18.51
2018-08-20T21:41:13.781Z,18.48
2018-08-20T21:43:47.190Z,18.45
2018-08-20T21:46:15.846Z,18.41
2018-08-20T21:48:44.761Z,18.37
2018-08-20T21:51:44.710Z,18.33
2018-08-20T21:54:13.102Z,18.28
2018-08-20T21:56:49.710Z,18.24
2018-08-20T21:59:18.122Z,18.20
2018-08-20T22:01:46.485Z,18.20
2018-08-20T22:04:20.824Z,18.19
2018-08-20T22:06:49.783Z,18.21
2018-08-20T22:09:18.171Z,18.19
2018-08-20T22:11:46.537Z,18.25
2018-08-20T22:14:14.926Z,18.26
2018-08-20T22:16:43.297Z,18.29
2018-08-20T22:19:11.715Z,18.31
2018-08-20T22:21:40.086Z,18.33
2018-08-20T22:24:08.474Z,18.36
2018-08-20T22:26:40.334Z,18.39
2018-08-20T22:29:08.733Z,18.39
2018-08-20T22:31:37.127Z,18.43
2018-08-20T22:34:05.529Z,18.46
2018-08-20T22:36:34.013Z,18.48
2018-08-20T22:39:04.611Z,18.49
2018-08-20T22:41:32.988Z,18.51
2018-08-20T22:44:01.382Z,18.53
2018-08-20T22:46:29.762Z,18.55
2018-08-20T22:48:59.422Z,18.57
2018-08-20T22:51:29.616Z,18.58
2018-08-20T22:54:00.478Z,18.57
2018-08-20T22:56:33.653Z,18.55
2018-08-20T22:59:03.538Z,18.52
2018-08-20T23:01:31.910Z,18.46
2018-08-20T23:04:00.315Z,18.40
2018-08-20T23:06:28.705Z,18.36
2018-08-20T23:08:57.094Z,18.30
2018-08-20T23:11:38.972Z,18.26
2018-08-20T23:14:08.922Z,18.20
2018-08-20T23:16:37.575Z,18.17
2018-08-20T23:19:06.090Z,18.12
2018-08-20T23:21:39.741Z,18.09
2018-08-20T23:24:08.186Z,18.04
2018-08-20T23:26:36.642Z,18.01
2018-08-20T23:29:05.074Z,17.98
2018-08-20T23:31:33.473Z,17.94
2018-08-20T23:34:01.879Z,17.89
2018-08-20T23:36:30.251Z,17.84
2018-08-20T23:38:58.658Z,17.79
2018-08-20T23:41:27.025Z,17.75
2018-08-20T23:43:59.310Z,17.68
2018-08-20T23:46:38.738Z,17.64
2018-08-20T23:49:07.125Z,17.60
2018-08-20T23:51:35.513Z,17.54
2018-08-20T23:54:03.922Z,17.50
2018-08-20T23:56:32.299Z,17.45
2018-08-20T23:59:00.913Z,17.41
